createdAt,value
2019-02-02T00:00:50.080Z,57.28
2019-02-02T00:04:55.822Z,57.00
2019-02-02T00:09:02.638Z,57.59
2019-02-02T00:13:09.393Z,57.95
2019-02-02T00:17:15.171Z,58.48
2019-02-02T00:21:21.006Z,58.87
2019-02-02T00:25:26.757Z,59.53
2019-02-02T00:29:32.635Z,59.03
2019-02-02T00:33:38.347Z,59.14
2019-02-02T00:37:44.052Z,59.35
2019-02-02T00:41:49.803Z,58.20
2019-02-02T00:45:55.470Z,58.00
2019-02-02T00:50:20.639Z,59.36
2019-02-02T00:54:26.328Z,58.33
2019-02-02T00:58:32.145Z,58.25
2019-02-02T01:02:38.069Z,58.00
2019-02-02T01:06:43.888Z,58.06
2019-02-02T01:10:49.730Z,58.27
2019-02-02T01:14:55.690Z,58.36
2019-02-02T01:19:01.385Z,58.43
2019-02-02T01:23:07.593Z,58.28
2019-02-02T01:27:13.462Z,58.35
2019-02-02T01:31:19.211Z,57.84
2019-02-02T01:35:24.965Z,57.88
2019-02-02T01:39:30.656Z,58.07
2019-02-02T01:43:36.347Z,57.99
2019-02-02T01:47:42.347Z,58.04
2019-02-02T01:51:48.012Z,57.68
2019-02-02T01:55:53.752Z,57.58
2019-02-02T01:59:59.432Z,57.20
2019-02-02T02:04:05.255Z,57.21
2019-02-02T02:08:11.091Z,56.95
2019-02-02T02:12:16.761Z,56.82
2019-02-02T02:16:22.627Z,56.67
2019-02-02T02:20:28.415Z,56.32
2019-02-02T02:24:34.120Z,56.56
2019-02-02T02:28:39.813Z,56.54
2019-02-02T02:32:45.642Z,56.90
2019-02-02T02:36:51.311Z,56.89
2019-02-02T02:40:58.202Z,56.96
2019-02-02T02:45:04.914Z,57.56
2019-02-02T02:49:10.596Z,57.51
2019-02-02T02:53:16.287Z,57.29
2019-02-02T02:57:21.958Z,57.66
2019-02-02T03:01:27.651Z,57.70
2019-02-02T03:05:33.816Z,57.27
2019-02-02T03:09:39.510Z,57.47
2019-02-02T03:13:45.188Z,57.57
2019-02-02T03:17:52.177Z,57.85
2019-02-02T03:21:59.042Z,57.94
2019-02-02T03:26:04.931Z,58.15
2019-02-02T03:30:17.547Z,57.68
2019-02-02T03:34:23.286Z,57.73
2019-02-02T03:38:28.961Z,57.11
2019-02-02T03:42:34.696Z,57.20
2019-02-02T04:04:16.932Z,58.23
2019-02-02T04:14:15.937Z,57.93
2019-02-02T04:18:21.611Z,57.74
2019-02-02T04:23:16.064Z,58.00
2019-02-02T04:28:16.269Z,58.26
2019-02-02T04:43:16.287Z,58.19
2019-02-02T04:48:18.655Z,58.00
2019-02-02T04:53:18.041Z,57.43
2019-02-02T04:58:17.659Z,57.99
2019-02-02T05:02:23.349Z,57.72
2019-02-02T05:07:17.022Z,58.50
2019-02-02T05:12:17.149Z,57.88
2019-02-02T05:21:19.565Z,58.21
2019-02-02T05:26:15.768Z,58.21
2019-02-02T05:31:15.482Z,57.94
2019-02-02T05:35:21.327Z,58.12
2019-02-02T05:41:15.142Z,57.86
2019-02-02T05:46:14.808Z,57.72
2019-02-02T05:51:15.790Z,57.74
2019-02-02T06:01:17.776Z,58.07
2019-02-02T06:06:17.952Z,58.24
2019-02-02T06:15:20.314Z,58.14
2019-02-02T06:19:43.755Z,58.25
2019-02-02T06:24:19.256Z,57.98
2019-02-02T06:29:19.581Z,58.20
2019-02-02T06:43:15.606Z,58.20
2019-02-02T06:47:21.288Z,58.27
2019-02-02T06:51:27.042Z,57.81
2019-02-02T06:55:32.741Z,57.90
2019-02-02T06:59:38.422Z,57.43
2019-02-02T07:03:44.120Z,56.69
2019-02-02T07:07:49.787Z,56.85
2019-02-02T07:11:55.487Z,56.58
2019-02-02T07:16:01.192Z,56.39
2019-02-02T07:20:11.716Z,56.52
2019-02-02T07:24:17.402Z,57.21
2019-02-02T07:28:23.162Z,57.57
2019-02-02T07:33:02.495Z,57.68
2019-02-02T07:37:08.235Z,57.78
2019-02-02T07:41:13.927Z,57.87
2019-02-02T07:45:32.740Z,57.98
2019-02-02T07:49:38.416Z,57.85
2019-02-02T07:53:44.099Z,57.79
2019-02-02T07:57:50.020Z,57.33
2019-02-02T08:01:55.767Z,57.92
2019-02-02T08:06:01.454Z,58.14
2019-02-02T08:10:11.699Z,57.85
2019-02-02T08:14:17.393Z,57.86
2019-02-02T08:18:23.135Z,57.85
2019-02-02T08:22:28.839Z,57.67
2019-02-02T08:26:34.608Z,57.35
2019-02-02T08:30:51.570Z,56.56
2019-02-02T08:34:48.039Z,56.42
2019-02-02T08:38:53.783Z,56.59
2019-02-02T08:42:59.492Z,57.02
2019-02-02T08:47:05.323Z,57.71
2019-02-02T08:51:11.020Z,55.76
2019-02-02T08:55:16.781Z,55.81
2019-02-02T08:59:22.454Z,56.44
2019-02-02T09:03:28.256Z,62.33
2019-02-02T09:07:33.990Z,53.95
2019-02-02T09:11:39.692Z,52.95
2019-02-02T09:15:45.383Z,55.19
2019-02-02T09:19:51.092Z,52.29
2019-02-02T09:23:56.780Z,52.06
2019-02-02T09:28:02.489Z,52.23
2019-02-02T09:32:08.179Z,51.68
2019-02-02T09:36:16.796Z,50.13
2019-02-02T09:40:21.877Z,48.17
2019-02-02T09:44:27.557Z,46.46
2019-02-02T09:48:33.272Z,47.22
2019-02-02T09:52:38.971Z,47.50
2019-02-02T09:56:44.671Z,48.52
2019-02-02T10:00:50.371Z,48.86
2019-02-02T10:04:56.075Z,49.53
2019-02-02T10:09:01.764Z,45.07
2019-02-02T10:13:09.216Z,45.78
2019-02-02T10:17:15.060Z,43.95
2019-02-02T10:21:20.835Z,42.39
2019-02-02T10:25:31.766Z,41.00
2019-02-02T10:29:37.477Z,42.96
2019-02-02T10:33:43.218Z,42.77
2019-02-02T10:37:48.952Z,46.04
2019-02-02T10:41:54.676Z,46.19
2019-02-02T10:46:00.525Z,45.24
2019-02-02T10:50:12.359Z,46.78
2019-02-02T10:54:18.052Z,49.50
2019-02-02T10:58:23.841Z,46.60
2019-02-02T11:02:29.619Z,48.88
2019-02-02T11:06:35.452Z,48.72
2019-02-02T11:10:41.279Z,48.13
2019-02-02T11:14:47.196Z,48.85
2019-02-02T11:18:53.001Z,48.65
2019-02-02T11:22:58.935Z,51.15
2019-02-02T11:27:04.937Z,48.29
2019-02-02T11:31:10.708Z,48.57
2019-02-02T11:35:21.853Z,44.48
2019-02-02T11:39:27.538Z,47.64
2019-02-02T11:43:33.245Z,48.20
2019-02-02T11:47:39.017Z,47.94
2019-02-02T11:51:44.778Z,43.91
2019-02-02T11:55:50.676Z,42.83
2019-02-02T11:59:56.339Z,43.73
2019-02-02T12:04:02.036Z,42.69
2019-02-02T12:08:07.891Z,42.03
2019-02-02T12:12:13.588Z,43.53
2019-02-02T12:21:19.232Z,38.36
2019-02-02T12:26:18.831Z,36.59
2019-02-02T12:30:33.551Z,39.40
2019-02-02T12:35:19.485Z,43.21
2019-02-02T12:39:25.181Z,45.46
2019-02-02T12:44:18.681Z,45.08
2019-02-02T12:48:24.510Z,46.21
2019-02-02T12:52:31.901Z,47.98
2019-02-02T12:56:37.590Z,49.73
2019-02-02T13:00:44.435Z,47.19
2019-02-02T13:04:50.432Z,48.36
2019-02-02T13:08:56.138Z,49.38
2019-02-02T13:13:01.840Z,49.19
2019-02-02T13:17:07.716Z,49.30
2019-02-02T13:21:13.423Z,46.00
2019-02-02T13:25:23.147Z,43.94
2019-02-02T13:29:28.850Z,44.12
2019-02-02T13:33:34.551Z,45.71
2019-02-02T13:37:40.389Z,45.44
2019-02-02T13:41:46.069Z,46.77
2019-02-02T13:45:51.756Z,47.42
2019-02-02T13:49:57.454Z,48.26
2019-02-02T13:54:03.151Z,48.24
2019-02-02T13:58:08.914Z,47.83
2019-02-02T14:02:17.397Z,48.39
2019-02-02T14:06:22.124Z,49.40
2019-02-02T14:10:33.924Z,49.04
2019-02-02T14:14:39.628Z,48.82
2019-02-02T14:18:45.341Z,48.50
2019-02-02T14:22:51.265Z,49.39
2019-02-02T14:26:57.002Z,48.23
2019-02-02T14:31:02.680Z,49.16
2019-02-02T14:35:13.085Z,49.15
2019-02-02T14:39:18.773Z,49.58
2019-02-02T14:43:24.476Z,51.04
2019-02-02T14:47:30.169Z,49.84
2019-02-02T14:51:35.845Z,50.07
2019-02-02T14:55:45.909Z,50.83
2019-02-02T14:59:50.806Z,50.28
2019-02-02T15:03:56.750Z,50.47
2019-02-02T15:08:02.450Z,50.58
2019-02-02T15:12:08.130Z,50.58
2019-02-02T15:16:13.843Z,50.78
2019-02-02T15:20:34.931Z,51.13
2019-02-02T15:24:40.612Z,51.64
2019-02-02T15:28:46.351Z,51.22
2019-02-02T15:32:52.196Z,51.57
2019-02-02T15:36:57.900Z,51.54
2019-02-02T15:41:03.757Z,51.58
2019-02-02T15:45:14.254Z,52.13
2019-02-02T15:49:20.052Z,52.33
2019-02-02T15:53:25.732Z,52.53
2019-02-02T15:57:31.432Z,52.42
2019-02-02T16:01:37.750Z,52.61
2019-02-02T16:05:43.481Z,53.78
2019-02-02T16:09:49.176Z,52.66
2019-02-02T16:13:54.949Z,52.27
2019-02-02T16:18:00.685Z,52.20
2019-02-02T16:22:06.390Z,52.56
2019-02-02T16:26:12.161Z,53.12
2019-02-02T16:30:22.021Z,52.36
2019-02-02T16:45:22.098Z,53.86
2019-02-02T16:54:18.125Z,52.75
2019-02-02T16:59:18.243Z,53.46
2019-02-02T17:03:23.944Z,55.03
2019-02-02T17:33:17.997Z,54.96
2019-02-02T17:47:18.736Z,55.75
2019-02-02T18:03:00.541Z,56.05
2019-02-02T18:12:19.975Z,56.09
2019-02-02T18:17:17.489Z,56.17
2019-02-02T18:21:23.297Z,55.93
2019-02-02T18:26:17.220Z,56.04
2019-02-02T18:40:25.976Z,56.31
2019-02-02T18:44:31.641Z,55.41
2019-02-02T18:48:37.330Z,55.65
2019-02-02T18:52:43.444Z,54.83
2019-02-02T18:56:49.203Z,55.69
2019-02-02T19:00:54.938Z,56.13
2019-02-02T19:05:04.060Z,55.23
2019-02-02T19:09:09.196Z,56.01
2019-02-02T19:17:44.175Z,56.55
2019-02-02T19:21:49.868Z,55.00
2019-02-02T19:25:55.555Z,54.66
2019-02-02T19:30:01.237Z,56.14
2019-02-02T19:34:06.938Z,55.63
2019-02-02T19:38:13.914Z,54.92
2019-02-02T19:42:19.622Z,54.78
2019-02-02T19:46:25.325Z,55.66
2019-02-02T19:50:31.159Z,55.16
2019-02-02T19:54:36.839Z,55.14
2019-02-02T19:58:42.640Z,55.04
2019-02-02T20:02:49.359Z,53.88
2019-02-02T20:06:56.093Z,54.46
2019-02-02T20:11:02.846Z,53.37
2019-02-02T20:15:15.080Z,54.69
2019-02-02T20:19:20.778Z,53.52
2019-02-02T20:23:26.486Z,53.69
2019-02-02T20:27:32.178Z,55.42
2019-02-02T20:31:37.886Z,54.99
2019-02-02T20:35:43.533Z,55.28
2019-02-02T20:39:49.234Z,54.36
2019-02-02T20:43:54.926Z,54.98
2019-02-02T20:48:00.749Z,54.46
2019-02-02T20:52:18.157Z,55.02
2019-02-02T21:02:19.303Z,56.11
2019-02-02T21:07:15.886Z,55.51
2019-02-02T21:11:21.576Z,55.02
2019-02-02T21:16:17.933Z,55.41
2019-02-02T21:21:16.046Z,54.94
2019-02-02T21:25:21.913Z,56.17
2019-02-02T21:30:15.434Z,55.86
2019-02-02T21:34:21.192Z,56.04
2019-02-02T21:38:28.133Z,56.15
2019-02-02T21:43:18.642Z,54.59
2019-02-02T21:47:24.334Z,54.64
2019-02-02T21:52:18.207Z,54.36
2019-02-02T21:56:23.959Z,54.64
2019-02-02T22:01:24.263Z,55.46
2019-02-02T22:05:25.280Z,54.84
2019-02-02T22:10:18.930Z,55.08
2019-02-02T22:14:24.624Z,55.64
2019-02-02T22:19:17.683Z,55.83
2019-02-02T22:23:23.389Z,55.09
2019-02-02T22:27:29.094Z,54.32
2019-02-02T22:31:35.064Z,55.74
2019-02-02T22:36:27.090Z,55.36
2019-02-02T22:40:28.923Z,55.40
2019-02-02T22:45:17.578Z,54.37
2019-02-02T22:49:23.275Z,54.10
2019-02-02T22:53:28.995Z,55.57
2019-02-02T22:57:34.699Z,54.43
2019-02-02T23:01:40.683Z,54.63
2019-02-02T23:06:17.754Z,55.88
2019-02-02T23:10:50.117Z,54.95
2019-02-02T23:15:49.199Z,55.79
2019-02-02T23:19:55.853Z,56.30
2019-02-02T23:24:01.668Z,55.44
2019-02-02T23:28:07.355Z,55.11
2019-02-02T23:32:13.113Z,56.37
2019-02-02T23:36:18.893Z,55.39
2019-02-02T23:40:24.595Z,54.83
2019-02-02T23:44:30.295Z,55.84
2019-02-02T23:48:35.996Z,55.02
2019-02-02T23:52:41.690Z,54.82
2019-02-02T23:56:47.383Z,56.83
